Charlotte, North Carolina
Current Conditions -  °F | °C
As of 4:52 PM on Saturday 25 Oct 2014 (Local Time) from KCLT Reporting Station
Clear Clear  
Wind Chill: 23°   Ceiling: Unl
Heat Index: 23°   Visibility: 10mi
Dew Point:   Wind: 6mph
Humidity: 22%   Direction: 240°WSW
Pressure: 29.95"   Gusts: NA
Location:  35.22°N, 80.84°W
Report Text: KCLT 252052Z 24005KT 10SM CLR 23/01 A2995 RMK AO2 SLP138 T02330006 56016
Loading
Personal Weather Stations






























Interactive Weather Map New forecast layout! Learn more

10-Day Weather Forecast

Advertisements
Track Severe Weather on mobile